Strona główna
METAR-TAF:

METAR-TAF

Lotnisko :

Danbury Municipal Airport

Danbury, Connecticut, Stany Zjednoczone

Szerokość geograficzna: 41-22-18N, Długość geograficzna: 073-29-04W, wysokość: 139 m

Aktualna obserwacja pogody

Raport powstał 34 minut temu, godzina 11:53 UTC
Wiatr 3 kt od południowy wschód
Temperatura 21°C
Wilgotność 88%
Ciśnienie 1012 hPa
Widzialność: 6.4 km
Zachmurzenie całkowite na wysokości 400 ft
słaby deszcz, zamglenie

METAR: KDXR 251153Z 14003KT 4SM -RA BR OVC004 21/19 A2987 RMK AO2 SLP112 P0002 60002 70002 T02060194 10206 20183 53005

czas: 08:27 (12:27 UTC)


TAF: brakujący

Obserwacja i prognoza pogody dla ponad 4000 lotnisk (raport METAR i TAF).

Dostępne stacje oznaczono żółtymi i czerwonymi punktami na mapie.

Najedź kursorem aby zobaczyć nazwę stacji.

Kliknij aby zobaczyć obserwacje i prognozy pogody.

Aby zmienić mapę: kliknij na zielony przycisk z czarnym krzyżykiem, aby powiększyć; na zielony przycisk z myślnikiem, aby pomniejszyć; na zielone strzałki, aby przejść do map sąsiednich.


METAR-TAF: